Time;durP1;ratioP1;P1;durP2;ratioP2;P2;SDS_P1;SDS_P2;PMS_P1;PMS_P2;Temp;Humidity;BMP_temperature;BMP_pressure;BME280_temperature;BME280_humidity;BME280_pressure;Samples;Min_cycle;Max_cycle;Signal;HPM_P1;HPM_P2
2023/11/17 00:01:44;;;;;;;22.30;13.32;;;4.80;99.90;;;;;;5093414;28;20044;-80
2023/11/17 00:04:32;;;;;;;23.35;12.18;;;4.80;99.90;;;;;;5087617;28;20475;-80
2023/11/17 00:07:22;;;;;;;20.27;12.07;;;4.80;99.90;;;;;;5092756;28;20040;-82
2023/11/17 00:10:13;;;;;;;18.08;10.73;;;4.80;99.90;;;;;;5092676;28;20059;-81
2023/11/17 00:13:01;;;;;;;22.85;10.80;;;4.70;99.90;;;;;;5072056;28;20585;-82
2023/11/17 00:15:50;;;;;;;17.02;10.00;;;4.70;99.90;;;;;;5077599;28;20052;-78
2023/11/17 00:18:37;;;;;;;17.13;10.57;;;4.70;99.90;;;;;;5106999;27;20047;-81
2023/11/17 00:21:26;;;;;;;17.65;9.88;;;4.70;99.90;;;;;;5090972;28;20063;-82
2023/11/17 00:24:13;;;;;;;12.82;8.15;;;4.70;99.90;;;;;;5092907;28;20067;-82
2023/11/17 00:27:03;;;;;;;11.65;6.80;;;4.60;99.90;;;;;;5080184;28;20043;-81
2023/11/17 00:29:51;;;;;;;8.63;5.40;;;4.60;99.90;;;;;;5081940;28;20064;-82
2023/11/17 00:32:38;;;;;;;8.80;4.57;;;4.50;99.90;;;;;;5094180;28;20040;-81
2023/11/17 00:35:25;;;;;;;5.55;4.32;;;4.40;99.90;;;;;;5090822;28;20218;-80
2023/11/17 00:38:13;;;;;;;7.00;4.45;;;4.40;99.90;;;;;;5096329;28;20047;-81
2023/11/17 00:41:04;;;;;;;5.57;3.88;;;4.40;99.90;;;;;;5082613;28;20044;-81
2023/11/17 00:44:07;;;;;;;6.75;3.47;;;4.40;99.90;;;;;;5081936;28;20078;-82
2023/11/17 00:46:59;;;;;;;4.72;3.47;;;4.30;99.90;;;;;;5082186;28;20040;-82
2023/11/17 00:49:47;;;;;;;;;;;4.30;99.90;;;;;;5090815;28;20044;-81
2023/11/17 00:52:35;;;;;;;4.90;3.42;;;4.30;99.90;;;;;;5092401;28;19920;-82
2023/11/17 00:55:22;;;;;;;5.28;3.60;;;4.20;99.90;;;;;;5091681;28;20044;-82
2023/11/17 00:58:10;;;;;;;5.22;4.00;;;4.30;99.90;;;;;;5087711;28;20422;-80
2023/11/17 01:00:57;;;;;;;6.18;4.10;;;4.20;99.90;;;;;;5065219;28;20051;-83
2023/11/17 01:03:47;;;;;;;5.35;3.88;;;4.20;99.90;;;;;;5091121;28;20132;-82
2023/11/17 01:06:35;;;;;;;5.88;3.50;;;4.20;99.90;;;;;;5092053;28;20123;-82
2023/11/17 01:09:24;;;;;;;5.15;3.47;;;4.20;99.90;;;;;;5094379;28;20036;-80
2023/11/17 01:12:14;;;;;;;8.30;4.20;;;4.20;99.90;;;;;;5094566;28;20452;-82
2023/11/17 01:15:07;;;;;;;6.00;3.65;;;4.20;99.90;;;;;;5093060;28;20048;-82
2023/11/17 01:17:54;;;;;;;;;;;4.20;99.90;;;;;;5085220;28;20048;-82
2023/11/17 01:20:41;;;;;;;3.78;3.13;;;4.20;99.90;;;;;;5090518;28;19931;-82
2023/11/17 01:23:29;;;;;;;5.57;4.15;;;4.20;99.90;;;;;;5088694;28;20040;-82
2023/11/17 01:26:19;;;;;;;4.45;3.30;;;4.20;99.90;;;;;;5085112;28;20141;-81
2023/11/17 01:29:06;;;;;;;5.47;3.05;;;4.20;99.90;;;;;;5071513;28;20048;-81
2023/11/17 01:31:54;;;;;;;5.28;3.28;;;4.10;99.90;;;;;;5101941;28;20496;-81
2023/11/17 01:34:41;;;;;;;4.35;3.20;;;4.10;99.90;;;;;;5091505;28;20040;-82
2023/11/17 01:37:29;;;;;;;6.95;3.72;;;4.10;99.90;;;;;;5093786;28;20062;-82
2023/11/17 01:40:17;;;;;;;6.95;4.70;;;4.10;99.90;;;;;;5079087;28;20153;-81
2023/11/17 01:43:05;;;;;;;7.70;5.20;;;4.20;99.90;;;;;;5091433;28;20135;-82
2023/11/17 01:45:53;;;;;;;9.57;5.65;;;4.20;99.90;;;;;;5090624;28;20044;-81
2023/11/17 01:48:40;;;;;;;8.07;5.32;;;4.20;99.90;;;;;;5092853;28;20036;-80
2023/11/17 01:51:28;;;;;;;6.72;5.10;;;4.20;99.90;;;;;;5092675;28;20379;-82
2023/11/17 01:54:18;;;;;;;8.50;5.93;;;4.30;99.90;;;;;;5076387;28;20047;-82
2023/11/17 01:57:08;;;;;;;9.27;6.32;;;4.30;99.90;;;;;;5091627;28;20336;-82
2023/11/17 01:59:56;;;;;;;10.25;7.03;;;4.30;99.90;;;;;;5084370;28;20052;-82
2023/11/17 02:02:45;;;;;;;10.68;7.10;;;4.30;99.90;;;;;;5086740;28;20063;-82
2023/11/17 02:05:36;;;;;;;11.20;7.40;;;4.30;99.90;;;;;;5092135;28;20044;-82
2023/11/17 02:08:57;;;;;;;9.65;6.80;;;4.30;99.90;;;;;;5090825;28;20093;-82
2023/11/17 02:12:14;;;;;;;11.88;7.50;;;4.30;99.90;;;;;;5066784;28;20185;-82
2023/11/17 02:15:09;;;;;;;10.75;6.85;;;4.30;99.90;;;;;;5095445;28;20055;-82
2023/11/17 02:18:04;;;;;;;12.75;6.80;;;4.30;99.90;;;;;;5082341;28;20063;-82
2023/11/17 02:20:53;;;;;;;9.50;7.10;;;4.30;99.90;;;;;;5091400;28;20047;-82
2023/11/17 02:23:42;;;;;;;12.20;7.70;;;4.30;99.90;;;;;;5091495;28;20371;-81
2023/11/17 02:27:01;;;;;;;10.02;6.50;;;4.30;99.90;;;;;;5092572;28;20486;-82
2023/11/17 02:29:49;;;;;;;8.85;5.45;;;4.30;99.90;;;;;;5094483;28;20097;-82
2023/11/17 02:32:38;;;;;;;13.45;5.95;;;4.20;99.90;;;;;;5090057;28;20079;-82
2023/11/17 02:35:28;;;;;;;8.18;5.72;;;4.20;99.90;;;;;;5080508;28;20166;-82
2023/11/17 02:38:16;;;;;;;13.55;6.38;;;4.10;99.90;;;;;;5090772;28;20178;-82
2023/11/17 02:41:08;;;;;;;9.00;5.75;;;4.10;99.90;;;;;;5092683;28;20044;-82
2023/11/17 02:43:57;;;;;;;;;;;4.10;99.90;;;;;;5092766;28;20115;-82
2023/11/17 02:46:45;;;;;;;14.88;6.70;;;4.10;99.90;;;;;;5088997;28;20350;-82
2023/11/17 02:49:40;;;;;;;12.18;6.90;;;4.10;99.90;;;;;;5085530;28;20055;-82
2023/11/17 02:52:42;;;;;;;10.02;5.78;;;4.10;99.90;;;;;;5086189;28;20055;-81
2023/11/17 02:55:35;;;;;;;10.98;5.35;;;4.10;99.90;;;;;;5090949;28;20052;-81
2023/11/17 02:58:25;;;;;;;11.82;5.78;;;4.10;99.90;;;;;;5092494;28;20046;-81
2023/11/17 03:01:15;;;;;;;10.60;5.60;;;4.10;99.90;;;;;;5092655;28;20137;-81
2023/11/17 03:04:03;;;;;;;7.50;5.20;;;4.10;99.90;;;;;;5095198;28;20058;-81
2023/11/17 03:06:53;;;;;;;8.63;5.60;;;4.10;99.90;;;;;;5103298;28;20599;-80
2023/11/17 03:09:42;;;;;;;7.20;4.95;;;4.10;99.90;;;;;;5094569;28;20060;-81
2023/11/17 03:12:30;;;;;;;6.70;4.18;;;4.10;99.90;;;;;;5099656;28;20036;-81
2023/11/17 03:15:17;;;;;;;8.15;4.18;;;4.10;99.90;;;;;;5099113;28;20117;-80
2023/11/17 03:18:09;;;;;;;7.88;3.35;;;4.10;99.90;;;;;;5106019;28;20340;-81
2023/11/17 03:21:01;;;;;;;5.90;3.53;;;4.10;99.90;;;;;;5104031;28;20048;-81
2023/11/17 03:23:50;;;;;;;6.47;2.97;;;4.10;99.90;;;;;;5093489;28;20103;-81
2023/11/17 03:26:42;;;;;;;3.42;3.00;;;4.10;99.90;;;;;;5111887;28;20415;-80
2023/11/17 03:29:29;;;;;;;7.05;2.90;;;4.00;99.90;;;;;;5110802;28;20046;-81
2023/11/17 03:32:19;;;;;;;6.50;2.90;;;4.00;99.90;;;;;;5111753;28;20052;-81
2023/11/17 03:35:06;;;;;;;2.85;2.28;;;4.00;99.90;;;;;;5103977;28;20051;-81
2023/11/17 03:37:55;;;;;;;3.63;2.50;;;3.90;99.90;;;;;;5110022;28;20365;-80
2023/11/17 03:40:46;;;;;;;4.70;2.30;;;3.90;99.90;;;;;;5097011;28;20067;-80
2023/11/17 03:43:37;;;;;;;4.75;2.20;;;3.90;99.90;;;;;;5109396;28;20050;-81
2023/11/17 03:46:27;;;;;;;4.43;2.85;;;3.90;99.90;;;;;;5082802;28;20625;-81
2023/11/17 03:49:15;;;;;;;8.20;3.08;;;3.90;99.90;;;;;;5097995;28;20523;-81
2023/11/17 03:52:03;;;;;;;6.22;3.00;;;3.90;99.90;;;;;;5093919;28;20105;-82
2023/11/17 03:54:51;;;;;;;4.93;3.10;;;4.00;99.90;;;;;;5090859;28;20036;-81
2023/11/17 03:57:38;;;;;;;4.07;2.60;;;4.00;99.90;;;;;;5092649;28;20044;-81
2023/11/17 04:00:28;;;;;;;2.90;2.35;;;3.90;99.90;;;;;;5093682;28;20145;-81
2023/11/17 04:03:17;;;;;;;2.53;2.30;;;4.00;99.90;;;;;;5080399;28;20408;-81
2023/11/17 04:06:05;;;;;;;2.20;2.00;;;3.90;99.90;;;;;;5095662;28;20055;-81
2023/11/17 04:08:53;;;;;;;2.50;2.13;;;3.90;99.90;;;;;;5060161;28;20055;-81
2023/11/17 04:11:43;;;;;;;5.20;2.70;;;3.90;99.90;;;;;;5085732;28;20471;-80
2023/11/17 04:14:42;;;;;;;4.32;2.95;;;3.90;99.90;;;;;;5098884;28;20147;-81
2023/11/17 04:17:33;;;;;;;2.55;2.30;;;3.90;99.90;;;;;;5100318;28;20047;-81
2023/11/17 04:20:20;;;;;;;3.70;2.50;;;3.90;99.90;;;;;;5100956;28;20390;-82
2023/11/17 04:23:10;;;;;;;2.15;1.95;;;3.80;99.90;;;;;;5094798;28;20048;-81
2023/11/17 04:26:00;;;;;;;2.40;2.08;;;3.80;99.90;;;;;;5089935;28;20047;-79
2023/11/17 04:28:48;;;;;;;10.63;6.18;;;3.80;99.90;;;;;;5092094;28;20044;-81
2023/11/17 04:31:36;;;;;;;7.63;5.22;;;3.80;99.90;;;;;;5091945;28;20518;-81
2023/11/17 04:34:23;;;;;;;4.03;3.20;;;3.80;99.90;;;;;;5093673;28;20044;-81
2023/11/17 04:37:10;;;;;;;7.97;4.68;;;3.80;99.90;;;;;;5077821;28;20036;-80
2023/11/17 04:39:58;;;;;;;4.65;2.85;;;3.70;99.90;;;;;;5077924;28;20048;-81
2023/11/17 04:42:45;;;;;;;4.30;2.33;;;3.70;99.90;;;;;;5092407;28;20075;-83
2023/11/17 04:45:36;;;;;;;3.35;2.42;;;3.70;99.90;;;;;;5091039;28;20044;-83
2023/11/17 04:48:23;;;;;;;3.85;2.40;;;3.70;99.90;;;;;;5103382;28;20032;-79
2023/11/17 04:51:11;;;;;;;7.03;2.70;;;3.60;99.90;;;;;;5088307;28;20059;-82
2023/11/17 04:54:00;;;;;;;3.40;2.60;;;3.60;99.90;;;;;;5078832;28;20047;-83
2023/11/17 04:56:52;;;;;;;3.03;2.50;;;3.60;99.90;;;;;;5092175;28;20036;-83
2023/11/17 04:59:39;;;;;;;1.88;1.73;;;3.60;99.90;;;;;;5081550;28;20064;-80
2023/11/17 05:02:31;;;;;;;3.00;2.17;;;3.60;99.90;;;;;;5094693;28;20055;-83
2023/11/17 05:05:20;;;;;;;2.65;2.20;;;3.60;99.90;;;;;;5092518;28;20040;-83
2023/11/17 05:08:07;;;;;;;4.18;2.63;;;3.60;99.90;;;;;;5091926;28;20459;-82
2023/11/17 05:10:57;;;;;;;6.63;3.50;;;3.60;99.90;;;;;;5091746;28;20047;-83
2023/11/17 05:13:46;;;;;;;4.80;3.00;;;3.60;99.90;;;;;;5083326;28;20048;-82
2023/11/17 05:16:37;;;;;;;4.85;2.90;;;3.60;99.90;;;;;;5086229;28;20067;-83
2023/11/17 05:19:25;;;;;;;3.93;3.00;;;3.60;99.90;;;;;;5080448;28;20056;-82
2023/11/17 05:22:14;;;;;;;5.40;3.10;;;3.60;99.90;;;;;;5086015;28;20054;-82
2023/11/17 05:25:06;;;;;;;6.50;3.20;;;3.60;99.90;;;;;;5089364;28;20240;-80
2023/11/17 05:27:55;;;;;;;5.13;3.03;;;3.60;99.90;;;;;;5093416;28;20044;-82
2023/11/17 05:30:43;;;;;;;3.67;2.55;;;3.60;99.90;;;;;;5093283;28;20124;-81
2023/11/17 05:33:30;;;;;;;2.40;2.20;;;3.60;99.90;;;;;;5095802;28;20055;-80
2023/11/17 05:36:20;;;;;;;2.67;2.25;;;3.60;99.90;;;;;;5078313;28;20052;-80
2023/11/17 05:39:11;;;;;;;2.95;2.47;;;3.60;99.90;;;;;;5088953;28;20409;-83
2023/11/17 05:41:59;;;;;;;4.80;3.13;;;3.60;99.90;;;;;;5090821;28;20047;-82
2023/11/17 05:44:46;;;;;;;4.03;2.70;;;3.60;99.90;;;;;;5092516;28;20063;-85
2023/11/17 05:47:34;;;;;;;3.00;2.70;;;3.60;99.90;;;;;;5087374;28;20101;-83
2023/11/17 05:50:21;;;;;;;4.50;2.00;;;3.60;99.90;;;;;;5091249;28;20409;-83
2023/11/17 05:53:15;;;;;;;1.90;1.80;;;3.60;99.90;;;;;;5076975;28;20040;-82
2023/11/17 05:56:06;;;;;;;4.38;2.22;;;3.70;99.90;;;;;;5098215;28;20055;-82
2023/11/17 05:58:57;;;;;;;1.77;1.67;;;3.60;99.90;;;;;;5102168;28;20051;-82
2023/11/17 06:01:44;;;;;;;2.28;2.08;;;3.70;99.90;;;;;;5091230;28;20043;-83
2023/11/17 06:04:36;;;;;;;3.75;2.33;;;3.70;99.90;;;;;;5092570;28;20040;-83
2023/11/17 06:07:25;;;;;;;2.33;2.03;;;3.70;99.90;;;;;;5103301;28;20125;-84
2023/11/17 06:10:15;;;;;;;2.42;1.67;;;3.70;99.90;;;;;;5073472;28;20176;-80
2023/11/17 06:13:04;;;;;;;1.70;1.60;;;3.60;99.90;;;;;;5090936;28;20521;-81
2023/11/17 06:15:51;;;;;;;1.70;1.60;;;3.70;99.90;;;;;;5088672;28;20051;-83
2023/11/17 06:18:39;;;;;;;2.13;1.92;;;3.60;99.90;;;;;;5095950;28;20044;-84
2023/11/17 06:21:29;;;;;;;2.53;1.92;;;3.60;99.90;;;;;;5085671;28;20495;-83
2023/11/17 06:24:16;;;;;;;1.70;1.60;;;3.70;99.90;;;;;;5091253;28;20077;-83
2023/11/17 06:27:04;;;;;;;4.80;1.90;;;3.70;99.90;;;;;;5089768;28;20048;-85
2023/11/17 06:29:52;;;;;;;1.90;1.70;;;3.70;99.90;;;;;;5085978;28;20123;-85
2023/11/17 06:32:39;;;;;;;2.55;2.00;;;3.70;99.90;;;;;;5081863;28;20125;-84
2023/11/17 06:35:28;;;;;;;1.95;1.75;;;3.70;99.90;;;;;;5077581;28;20049;-83
2023/11/17 06:38:16;;;;;;;4.32;2.17;;;3.70;99.90;;;;;;5091406;28;20072;-83
2023/11/17 06:41:04;;;;;;;3.03;2.33;;;3.70;99.90;;;;;;5087906;28;20044;-82
2023/11/17 06:43:51;;;;;;;3.72;2.13;;;3.70;99.90;;;;;;5075874;28;20048;-82
2023/11/17 06:46:42;;;;;;;2.35;2.10;;;3.70;99.90;;;;;;5072723;28;20051;-83
2023/11/17 06:49:29;;;;;;;2.80;2.53;;;3.70;99.90;;;;;;5082641;28;20123;-83
2023/11/17 06:52:16;;;;;;;2.20;2.00;;;3.70;99.90;;;;;;5086531;28;20059;-83
2023/11/17 06:55:04;;;;;;;2.85;2.17;;;3.70;99.90;;;;;;5071241;28;20051;-83
2023/11/17 06:57:53;;;;;;;5.88;2.28;;;3.70;99.90;;;;;;5085265;28;20040;-82
2023/11/17 07:00:44;;;;;;;3.90;2.10;;;3.80;99.90;;;;;;5096813;28;20048;-84
2023/11/17 07:03:31;;;;;;;3.22;2.70;;;3.80;99.90;;;;;;5094938;28;20096;-84
2023/11/17 07:06:19;;;;;;;2.88;2.28;;;3.80;99.90;;;;;;5088336;28;20183;-83
2023/11/17 07:09:17;;;;;;;3.65;2.70;;;3.80;99.90;;;;;;5084221;28;20123;-86
2023/11/17 07:12:07;;;;;;;4.00;3.20;;;3.80;99.90;;;;;;5092049;28;20091;-86
2023/11/17 07:14:55;;;;;;;8.80;4.88;;;3.80;99.90;;;;;;5086249;28;20175;-86
2023/11/17 07:17:45;;;;;;;4.95;3.92;;;3.80;99.90;;;;;;5088421;28;20040;-85
2023/11/17 07:20:33;;;;;;;7.15;4.30;;;3.80;99.90;;;;;;5090946;28;20109;-86
2023/11/17 07:23:25;;;;;;;7.00;4.13;;;3.90;99.90;;;;;;5095999;28;20052;-85
2023/11/17 07:26:17;;;;;;;6.38;2.55;;;3.80;99.90;;;;;;5093208;28;20048;-86
2023/11/17 07:29:07;;;;;;;5.85;3.53;;;3.90;99.90;;;;;;5103737;28;20044;-85
2023/11/17 07:31:56;;;;;;;5.82;4.05;;;3.90;99.90;;;;;;5113179;27;20040;-83
2023/11/17 07:34:44;;;;;;;5.35;3.13;;;3.90;99.90;;;;;;5085638;28;20059;-85
2023/11/17 07:37:34;;;;;;;4.53;3.45;;;4.00;99.90;;;;;;5093885;28;20036;-83
2023/11/17 07:40:22;;;;;;;4.50;2.92;;;3.90;99.90;;;;;;5091831;28;20055;-85
2023/11/17 07:43:12;;;;;;;6.57;3.20;;;4.00;99.90;;;;;;5092758;28;20119;-85
2023/11/17 07:46:07;;;;;;;4.93;3.03;;;4.00;99.90;;;;;;5085696;28;20105;-85
2023/11/17 07:48:55;;;;;;;17.88;8.60;;;4.10;99.90;;;;;;5086335;28;20036;-84
2023/11/17 07:51:43;;;;;;;25.38;9.90;;;4.20;99.90;;;;;;5093839;28;20152;-80
2023/11/17 07:54:32;;;;;;;3.53;3.08;;;4.10;99.90;;;;;;5076702;28;20064;-84
2023/11/17 07:57:19;;;;;;;4.22;3.10;;;4.10;99.90;;;;;;5079853;28;20059;-83
2023/11/17 08:00:18;;;;;;;4.05;3.28;;;4.10;99.90;;;;;;5084386;28;20057;-80
2023/11/17 08:03:08;;;;;;;7.00;3.72;;;4.10;99.90;;;;;;5086852;28;20131;-83
2023/11/17 08:05:59;;;;;;;6.55;3.63;;;4.20;99.90;;;;;;5075438;28;20636;-81
2023/11/17 08:08:47;;;;;;;9.60;5.40;;;4.20;99.90;;;;;;5089981;28;20179;-82
2023/11/17 08:11:35;;;;;;;7.80;4.03;;;4.20;99.90;;;;;;5091826;28;20150;-82
2023/11/17 08:14:24;;;;;;;5.30;3.63;;;4.20;99.90;;;;;;5085671;28;20402;-83
2023/11/17 08:17:18;;;;;;;6.03;3.13;;;4.30;99.90;;;;;;5079769;28;20437;-83
2023/11/17 08:20:14;;;;;;;;;;;4.30;99.90;;;;;;5087706;28;20044;-81
2023/11/17 08:23:01;;;;;;;6.63;2.42;;;4.30;99.90;;;;;;5091754;28;19989;-81
2023/11/17 08:25:49;;;;;;;7.32;2.78;;;4.30;99.90;;;;;;5093270;28;20059;-83
2023/11/17 08:28:36;;;;;;;5.03;2.60;;;4.30;99.90;;;;;;5090097;28;20051;-82
2023/11/17 08:31:24;;;;;;;4.82;3.20;;;4.40;99.90;;;;;;5086929;28;20045;-82
2023/11/17 08:34:12;;;;;;;5.85;3.50;;;4.30;99.90;;;;;;5077051;28;20040;-83
2023/11/17 08:37:05;;;;;;;8.13;4.35;;;4.30;99.90;;;;;;5092070;28;20140;-83
2023/11/17 08:39:52;;;;;;;9.15;5.53;;;4.30;99.90;;;;;;5087243;28;20137;-83
2023/11/17 08:42:40;;;;;;;6.07;4.07;;;4.30;99.90;;;;;;5087519;28;20044;-79
2023/11/17 08:45:28;;;;;;;4.32;3.53;;;4.30;99.90;;;;;;5090692;28;20051;-82
2023/11/17 08:48:15;;;;;;;4.68;3.00;;;4.40;99.90;;;;;;5089251;28;20072;-82
2023/11/17 08:51:03;;;;;;;31.02;12.00;;;4.40;99.90;;;;;;5091620;28;20389;-83
2023/11/17 08:53:51;;;;;;;3.95;3.10;;;4.50;99.90;;;;;;5074730;28;20048;-81
2023/11/17 08:56:38;;;;;;;3.40;2.65;;;4.50;99.90;;;;;;5087241;28;20047;-78
2023/11/17 08:59:29;;;;;;;2.15;1.88;;;4.50;99.90;;;;;;5082032;28;20055;-83
2023/11/17 09:02:21;;;;;;;3.13;2.03;;;4.60;99.90;;;;;;5087054;28;20177;-83
2023/11/17 09:05:15;;;;;;;2.53;2.30;;;4.60;99.90;;;;;;5092515;28;20088;-82
2023/11/17 09:08:07;;;;;;;2.42;1.95;;;4.70;99.90;;;;;;5089717;28;20075;-81
2023/11/17 09:10:54;;;;;;;3.67;2.25;;;4.70;99.90;;;;;;5074967;28;20044;-81
2023/11/17 09:13:43;;;;;;;3.92;2.80;;;4.80;99.90;;;;;;5074910;28;20040;-83
2023/11/17 09:16:32;;;;;;;3.47;2.50;;;4.70;99.90;;;;;;5078259;28;20032;-78
2023/11/17 09:19:37;;;;;;;3.95;1.98;;;4.80;99.90;;;;;;5090125;28;20048;-83
2023/11/17 09:22:33;;;;;;;1.67;1.58;;;4.80;99.90;;;;;;5088479;28;20048;-82
2023/11/17 09:25:23;;;;;;;3.47;1.80;;;4.80;99.90;;;;;;5092065;28;20056;-80
2023/11/17 09:28:12;;;;;;;1.65;1.52;;;4.90;99.90;;;;;;5099220;28;20067;-81
2023/11/17 09:31:02;;;;;;;1.75;1.50;;;4.90;99.90;;;;;;5087757;28;20043;-82
2023/11/17 09:33:50;;;;;;;1.88;1.40;;;4.90;99.90;;;;;;5104254;28;20039;-83
2023/11/17 09:36:40;;;;;;;1.95;1.38;;;4.90;99.90;;;;;;5106452;28;20044;-80
2023/11/17 09:39:28;;;;;;;3.45;1.48;;;4.80;99.90;;;;;;5108816;28;20039;-80
2023/11/17 09:42:16;;;;;;;1.85;1.50;;;4.90;99.90;;;;;;5112168;28;20084;-81
2023/11/17 09:45:08;;;;;;;3.90;1.35;;;4.90;99.90;;;;;;5113296;28;20040;-83
2023/11/17 09:47:57;;;;;;;1.83;1.73;;;4.90;99.90;;;;;;5097657;28;20063;-82
2023/11/17 09:50:46;;;;;;;1.50;1.40;;;4.90;99.90;;;;;;5095332;28;20040;-82
2023/11/17 09:53:35;;;;;;;1.63;1.38;;;5.00;99.90;;;;;;5108637;28;20091;-81
2023/11/17 09:56:23;;;;;;;2.08;1.50;;;5.10;99.90;;;;;;5107864;28;20104;-82
2023/11/17 09:59:14;;;;;;;3.00;1.45;;;5.00;99.90;;;;;;5100987;28;20048;-81
2023/11/17 10:02:01;;;;;;;7.70;2.08;;;5.10;99.90;;;;;;5091759;28;20044;-82
2023/11/17 10:04:51;;;;;;;2.63;1.88;;;5.10;99.90;;;;;;5103428;28;20044;-82
2023/11/17 10:07:45;;;;;;;3.88;2.13;;;5.10;99.90;;;;;;5095314;28;20074;-81
2023/11/17 10:10:46;;;;;;;4.05;2.05;;;5.10;99.90;;;;;;5078627;28;20051;-81
2023/11/17 10:13:35;;;;;;;2.47;1.80;;;5.00;99.90;;;;;;5089077;28;20102;-82
2023/11/17 10:16:23;;;;;;;4.72;1.55;;;5.00;99.90;;;;;;5089163;28;20055;-82
2023/11/17 10:19:15;;;;;;;5.25;1.75;;;5.00;99.90;;;;;;5090736;28;20048;-81
2023/11/17 10:22:04;;;;;;;1.77;1.67;;;5.00;99.90;;;;;;5103743;28;20379;-83
2023/11/17 10:24:52;;;;;;;2.20;1.80;;;5.00;99.90;;;;;;5086355;28;20055;-84
2023/11/17 10:27:42;;;;;;;4.60;1.60;;;5.10;99.90;;;;;;5079324;28;20673;-82
2023/11/17 10:30:41;;;;;;;2.25;1.60;;;5.10;99.90;;;;;;5068758;28;20173;-81
2023/11/17 10:33:40;;;;;;;2.10;1.90;;;5.10;99.90;;;;;;5090947;28;20151;-82
2023/11/17 10:36:28;;;;;;;1.90;1.63;;;5.10;99.90;;;;;;5090409;28;20155;-81
2023/11/17 10:39:18;;;;;;;2.15;1.60;;;5.10;99.90;;;;;;5087881;28;20131;-80
2023/11/17 10:42:16;;;;;;;2.70;1.70;;;5.30;99.90;;;;;;5083434;28;20098;-82
2023/11/17 10:45:19;;;;;;;1.83;1.60;;;5.30;99.90;;;;;;5102103;28;20051;-81
2023/11/17 10:48:07;;;;;;;5.15;1.95;;;5.30;99.90;;;;;;5070366;28;20100;-78
2023/11/17 10:51:04;;;;;;;1.65;1.50;;;5.40;99.90;;;;;;5096198;28;20554;-81
2023/11/17 10:54:03;;;;;;;4.00;2.13;;;5.40;99.90;;;;;;5094969;28;20083;-81
2023/11/17 10:56:51;;;;;;;2.40;2.20;;;5.50;99.90;;;;;;5090873;28;20501;-82
2023/11/17 10:59:43;;;;;;;4.70;1.92;;;5.50;99.90;;;;;;5093408;28;20460;-82
2023/11/17 11:02:47;;;;;;;2.00;1.80;;;5.60;99.90;;;;;;5089813;28;20048;-82
2023/11/17 11:05:39;;;;;;;1.52;1.20;;;5.60;99.90;;;;;;5093295;28;20370;-81
2023/11/17 11:08:27;;;;;;;2.60;1.60;;;5.50;99.90;;;;;;5090242;28;20044;-81
2023/11/17 11:11:20;;;;;;;2.00;1.58;;;5.60;99.90;;;;;;5089439;28;20063;-81
2023/11/17 11:14:08;;;;;;;3.78;1.65;;;5.60;99.90;;;;;;5082430;28;20458;-83
2023/11/17 11:16:55;;;;;;;1.52;1.42;;;5.70;99.90;;;;;;5093068;28;20085;-80
2023/11/17 11:19:45;;;;;;;4.35;1.10;;;5.70;99.90;;;;;;5096444;28;20059;-83
2023/11/17 11:22:55;;;;;;;1.80;1.33;;;5.60;99.90;;;;;;5095242;28;20063;-82
2023/11/17 11:25:44;;;;;;;1.58;1.38;;;5.70;99.90;;;;;;5082732;28;20044;-82
2023/11/17 11:28:32;;;;;;;4.20;3.08;;;5.70;99.90;;;;;;5094431;28;20103;-83
2023/11/17 11:31:21;;;;;;;1.60;1.00;;;5.70;99.90;;;;;;5096846;28;20379;-82
2023/11/17 11:34:09;;;;;;;1.65;1.23;;;5.70;99.90;;;;;;5094700;28;20048;-82
2023/11/17 11:36:56;;;;;;;1.73;1.50;;;5.80;99.90;;;;;;5096127;28;20400;-83
2023/11/17 11:39:44;;;;;;;1.42;1.27;;;5.80;99.90;;;;;;5094065;28;20187;-80
2023/11/17 11:42:35;;;;;;;1.45;1.13;;;5.80;99.90;;;;;;5097319;28;20056;-82
2023/11/17 11:45:24;;;;;;;4.05;1.30;;;5.80;99.90;;;;;;5090367;28;20052;-80
2023/11/17 11:48:14;;;;;;;1.65;1.20;;;5.80;99.90;;;;;;5082162;28;20448;-81
2023/11/17 11:51:10;;;;;;;1.40;1.23;;;5.90;99.90;;;;;;5092107;28;20051;-81
2023/11/17 11:54:01;;;;;;;1.10;1.00;;;5.90;99.90;;;;;;5076820;28;20036;-82
2023/11/17 11:56:49;;;;;;;1.20;1.10;;;5.90;99.90;;;;;;5093494;28;20051;-82
2023/11/17 11:59:36;;;;;;;1.00;1.00;;;5.80;99.90;;;;;;5084865;28;20036;-81
2023/11/17 12:02:24;;;;;;;2.55;1.20;;;5.70;99.90;;;;;;5088994;28;20368;-81
2023/11/17 12:05:12;;;;;;;1.25;0.85;;;5.70;99.90;;;;;;5089071;28;20210;-82
2023/11/17 12:08:19;;;;;;;1.20;1.10;;;5.60;99.90;;;;;;5077292;28;20072;-82
2023/11/17 12:11:13;;;;;;;1.25;1.15;;;5.60;99.90;;;;;;5084644;28;20344;-82
2023/11/17 12:14:09;;;;;;;1.10;1.00;;;5.60;99.90;;;;;;5089478;28;20039;-82
2023/11/17 12:16:58;;;;;;;1.05;1.00;;;5.60;99.90;;;;;;5089466;28;20119;-81
2023/11/17 12:19:50;;;;;;;2.63;1.33;;;5.60;99.90;;;;;;5074936;28;20086;-80
2023/11/17 12:22:59;;;;;;;6.65;3.45;;;5.60;99.90;;;;;;5090448;28;20573;-81
2023/11/17 12:25:50;;;;;;;3.42;2.17;;;5.60;99.90;;;;;;5086993;28;20044;-82
2023/11/17 12:28:43;;;;;;;3.72;2.20;;;5.60;99.90;;;;;;5102468;28;20724;-81
2023/11/17 12:31:31;;;;;;;7.18;3.42;;;5.60;99.90;;;;;;5090590;28;20141;-82
2023/11/17 12:34:20;;;;;;;4.43;2.22;;;5.60;99.90;;;;;;5096466;28;20047;-82
2023/11/17 12:37:10;;;;;;;3.88;1.75;;;5.50;99.90;;;;;;5075156;28;20051;-83
2023/11/17 12:40:12;;;;;;;6.80;1.67;;;5.50;99.90;;;;;;5092887;28;20055;-79
2023/11/17 12:43:00;;;;;;;14.43;2.00;;;5.60;99.90;;;;;;5082364;28;20044;-81
2023/11/17 12:45:51;;;;;;;1.92;1.20;;;5.60;99.90;;;;;;5086981;28;20290;-82
2023/11/17 12:48:39;;;;;;;14.73;3.17;;;5.70;99.90;;;;;;5090538;28;20093;-83
2023/11/17 12:51:28;;;;;;;3.50;2.25;;;5.80;99.90;;;;;;5087643;28;20036;-82
2023/11/17 12:54:17;;;;;;;4.97;2.20;;;5.80;99.90;;;;;;5073682;28;20543;-79
2023/11/17 12:57:06;;;;;;;3.72;1.50;;;5.80;99.90;;;;;;5087537;28;20051;-82
2023/11/17 12:59:57;;;;;;;1.85;1.55;;;5.70;99.90;;;;;;5072799;28;20055;-83
2023/11/17 13:02:45;;;;;;;13.23;6.30;;;5.70;99.90;;;;;;5088769;28;20043;-81
2023/11/17 13:05:32;;;;;;;1.63;1.52;;;5.60;99.90;;;;;;5089720;28;20040;-83
2023/11/17 13:08:20;;;;;;;2.30;1.92;;;5.60;99.90;;;;;;5086121;28;20119;-83
2023/11/17 13:11:14;;;;;;;2.20;1.95;;;5.40;99.90;;;;;;5086851;28;20447;-82
2023/11/17 13:14:03;;;;;;;2.13;1.92;;;5.30;99.90;;;;;;5087895;28;20712;-82
2023/11/17 13:16:58;;;;;;;1.80;1.67;;;5.30;99.90;;;;;;5089250;28;20056;-83
2023/11/17 13:19:52;;;;;;;2.92;2.00;;;5.30;99.90;;;;;;5085460;28;20048;-82
2023/11/17 13:22:49;;;;;;;14.85;2.80;;;5.20;99.90;;;;;;5090255;28;20155;-82
2023/11/17 13:26:00;;;;;;;4.40;2.35;;;5.20;99.90;;;;;;5087395;28;20671;-82
2023/11/17 13:29:23;;;;;;;;;;;;;;;;;;;;;
2023/11/17 13:32:23;;;;;;;5.97;2.05;;;5.20;99.90;;;;;;5086416;28;20054;-81
2023/11/17 13:35:32;;;;;;;2.92;2.08;;;5.20;99.90;;;;;;5086778;28;20044;-82
2023/11/17 13:39:16;;;;;;;3.83;2.67;;;5.30;99.90;;;;;;5087874;28;20632;-81
2023/11/17 13:42:45;;;;;;;4.13;2.40;;;5.30;99.90;;;;;;4985698;28;20147;-82
2023/11/17 13:45:44;;;;;;;4.50;2.60;;;5.20;99.90;;;;;;5088015;28;20370;-82
2023/11/17 13:48:42;;;;;;;4.13;2.70;;;5.20;99.90;;;;;;5089166;28;20785;-81
2023/11/17 13:51:43;;;;;;;3.47;2.60;;;5.20;99.90;;;;;;5089914;28;20050;-80
2023/11/17 13:54:33;;;;;;;3.80;2.65;;;5.20;99.90;;;;;;5100325;27;20702;-80
2023/11/17 13:57:23;;;;;;;3.08;2.00;;;5.20;99.90;;;;;;5090793;28;20098;-80
2023/11/17 14:00:25;;;;;;;3.75;2.67;;;5.20;99.90;;;;;;5088141;28;20714;-81
2023/11/17 14:03:16;;;;;;;1.52;1.42;;;5.20;99.90;;;;;;5088984;28;20066;-81
2023/11/17 14:06:06;;;;;;;1.73;1.50;;;5.20;99.90;;;;;;5083832;28;20048;-81
2023/11/17 14:08:57;;;;;;;2.10;1.50;;;5.20;99.90;;;;;;5083779;28;20127;-79
2023/11/17 14:11:57;;;;;;;1.40;1.30;;;5.20;99.90;;;;;;5090367;28;20541;-80
2023/11/17 14:14:52;;;;;;;2.25;1.45;;;5.10;99.90;;;;;;5089773;28;20047;-80
2023/11/17 14:17:52;;;;;;;3.22;2.10;;;5.10;99.90;;;;;;5087795;28;20052;-80
2023/11/17 14:20:46;;;;;;;3.35;2.08;;;5.10;99.90;;;;;;5097975;28;20447;-82
2023/11/17 14:23:38;;;;;;;3.30;2.20;;;5.20;99.90;;;;;;5093544;28;20040;-83
2023/11/17 14:26:31;;;;;;;8.40;3.72;;;5.20;99.90;;;;;;5095432;28;20052;-82
2023/11/17 14:29:27;;;;;;;4.90;2.53;;;5.20;99.90;;;;;;5091765;28;20059;-81
2023/11/17 14:32:20;;;;;;;4.47;2.38;;;5.20;99.90;;;;;;5095606;28;20048;-80
2023/11/17 14:35:20;;;;;;;2.90;1.67;;;5.20;99.90;;;;;;5092890;28;20055;-82
2023/11/17 14:38:16;;;;;;;2.65;1.90;;;5.20;99.90;;;;;;5092690;28;20467;-80
2023/11/17 14:41:09;;;;;;;3.22;1.80;;;5.20;99.90;;;;;;5089107;28;20431;-81
2023/11/17 14:44:01;;;;;;;4.70;2.53;;;5.30;99.90;;;;;;5091463;28;20444;-81
2023/11/17 14:46:51;;;;;;;4.70;2.63;;;5.20;99.90;;;;;;5097965;28;20153;-80
2023/11/17 14:49:48;;;;;;;3.30;2.28;;;5.20;99.90;;;;;;5091386;28;20134;-81
2023/11/17 14:52:38;;;;;;;3.60;2.45;;;5.20;99.90;;;;;;5079592;28;20735;-82
2023/11/17 14:55:33;;;;;;;4.30;2.30;;;5.20;99.90;;;;;;5092186;28;20040;-81
2023/11/17 14:58:23;;;;;;;4.45;2.60;;;5.10;99.90;;;;;;5086160;28;20554;-81
2023/11/17 15:01:16;;;;;;;;;;;5.10;99.90;;;;;;5089729;28;20093;-81
2023/11/17 15:04:06;;;;;;;5.43;2.80;;;5.00;99.90;;;;;;5091932;28;19981;-81